sensor_id;sensor_type;location;lat;lon;timestamp;pressure;altitude;pressure_sealevel;temperature;humidity
35918;BME280;22011;59.912;30.300;2024-01-16T00:02:13;98234.84;;;-6.49;66.84
35918;BME280;22011;59.912;30.300;2024-01-16T00:04:40;98227.91;;;-6.48;67.16
35918;BME280;22011;59.912;30.300;2024-01-16T00:07:08;98231.31;;;-6.48;66.99
35918;BME280;22011;59.912;30.300;2024-01-16T00:09:37;98227.78;;;-6.47;67.25
35918;BME280;22011;59.912;30.300;2024-01-16T00:12:05;98223.09;;;-6.53;67.63
35918;BME280;22011;59.912;30.300;2024-01-16T00:14:35;98227.19;;;-6.50;68.00
35918;BME280;22011;59.912;30.300;2024-01-16T00:17:03;98229.78;;;-6.50;68.29
35918;BME280;22011;59.912;30.300;2024-01-16T00:19:31;98221.44;;;-6.54;68.49
35918;BME280;22011;59.912;30.300;2024-01-16T00:21:58;98223.09;;;-6.53;68.74
35918;BME280;22011;59.912;30.300;2024-01-16T00:24:28;98221.78;;;-6.47;68.94
35918;BME280;22011;59.912;30.300;2024-01-16T00:26:57;98228.94;;;-6.40;68.88
35918;BME280;22011;59.912;30.300;2024-01-16T00:29:25;98230.84;;;-6.42;68.94
35918;BME280;22011;59.912;30.300;2024-01-16T00:31:53;98224.00;;;-6.43;69.12
35918;BME280;22011;59.912;30.300;2024-01-16T00:34:20;98228.13;;;-6.40;68.98
35918;BME280;22011;59.912;30.300;2024-01-16T00:36:48;98234.00;;;-6.38;69.25
35918;BME280;22011;59.912;30.300;2024-01-16T00:39:16;98233.91;;;-6.37;69.08
35918;BME280;22011;59.912;30.300;2024-01-16T00:41:43;98227.88;;;-6.37;68.86
35918;BME280;22011;59.912;30.300;2024-01-16T00:44:12;98220.69;;;-6.34;68.96
35918;BME280;22011;59.912;30.300;2024-01-16T00:46:40;98220.94;;;-6.37;69.02
35918;BME280;22011;59.912;30.300;2024-01-16T00:49:08;98220.25;;;-6.39;69.14
35918;BME280;22011;59.912;30.300;2024-01-16T00:51:36;98217.75;;;-6.40;69.14
35918;BME280;22011;59.912;30.300;2024-01-16T00:54:04;98208.22;;;-6.40;69.84
35918;BME280;22011;59.912;30.300;2024-01-16T00:56:35;98217.41;;;-6.36;70.06
35918;BME280;22011;59.912;30.300;2024-01-16T00:59:03;98222.00;;;-6.39;69.74
35918;BME280;22011;59.912;30.300;2024-01-16T01:01:31;98213.16;;;-6.37;69.97
35918;BME280;22011;59.912;30.300;2024-01-16T01:03:59;98215.28;;;-6.31;69.71
35918;BME280;22011;59.912;30.300;2024-01-16T01:06:27;98207.75;;;-6.34;69.26
35918;BME280;22011;59.912;30.300;2024-01-16T01:08:54;98208.44;;;-6.32;69.95
35918;BME280;22011;59.912;30.300;2024-01-16T01:11:22;98205.84;;;-6.32;70.24
35918;BME280;22011;59.912;30.300;2024-01-16T01:13:50;98208.31;;;-6.30;70.20
35918;BME280;22011;59.912;30.300;2024-01-16T01:16:17;98211.03;;;-6.32;70.49
35918;BME280;22011;59.912;30.300;2024-01-16T01:18:47;98200.66;;;-6.32;70.60
35918;BME280;22011;59.912;30.300;2024-01-16T01:21:14;98204.22;;;-6.33;70.68
35918;BME280;22011;59.912;30.300;2024-01-16T01:23:43;98210.56;;;-6.25;70.83
35918;BME280;22011;59.912;30.300;2024-01-16T01:26:11;98210.16;;;-6.21;70.98
35918;BME280;22011;59.912;30.300;2024-01-16T01:28:39;98210.72;;;-6.17;70.95
35918;BME280;22011;59.912;30.300;2024-01-16T01:31:08;98212.25;;;-6.15;70.99
35918;BME280;22011;59.912;30.300;2024-01-16T01:33:36;98211.06;;;-6.11;70.91
35918;BME280;22011;59.912;30.300;2024-01-16T01:36:05;98221.88;;;-6.06;70.71
35918;BME280;22011;59.912;30.300;2024-01-16T01:38:33;98219.16;;;-6.04;70.93
35918;BME280;22011;59.912;30.300;2024-01-16T01:41:01;98214.00;;;-6.04;71.12
35918;BME280;22011;59.912;30.300;2024-01-16T01:43:28;98211.16;;;-6.01;71.06
35918;BME280;22011;59.912;30.300;2024-01-16T01:46:09;98209.84;;;-5.96;71.38
35918;BME280;22011;59.912;30.300;2024-01-16T01:48:38;98216.47;;;-6.03;71.41
35918;BME280;22011;59.912;30.300;2024-01-16T01:51:08;98215.13;;;-5.97;71.60
35918;BME280;22011;59.912;30.300;2024-01-16T01:53:39;98213.94;;;-5.93;71.68
35918;BME280;22011;59.912;30.300;2024-01-16T01:56:08;98213.81;;;-5.91;71.60
35918;BME280;22011;59.912;30.300;2024-01-16T01:58:37;98216.28;;;-5.90;71.75
35918;BME280;22011;59.912;30.300;2024-01-16T02:01:05;98212.75;;;-5.89;71.82
35918;BME280;22011;59.912;30.300;2024-01-16T02:03:37;98213.28;;;-5.85;71.73
35918;BME280;22011;59.912;30.300;2024-01-16T02:06:08;98210.56;;;-5.84;71.91
35918;BME280;22011;59.912;30.300;2024-01-16T02:08:35;98211.41;;;-5.83;72.07
35918;BME280;22011;59.912;30.300;2024-01-16T02:11:03;98211.28;;;-5.82;71.68
35918;BME280;22011;59.912;30.300;2024-01-16T02:13:32;98211.97;;;-5.80;71.64
35918;BME280;22011;59.912;30.300;2024-01-16T02:15:59;98203.25;;;-5.79;71.63
35918;BME280;22011;59.912;30.300;2024-01-16T02:18:27;98202.19;;;-5.76;71.81
35918;BME280;22011;59.912;30.300;2024-01-16T02:20:58;98194.84;;;-5.71;71.82
35918;BME280;22011;59.912;30.300;2024-01-16T02:23:29;98198.38;;;-5.72;71.82
35918;BME280;22011;59.912;30.300;2024-01-16T02:25:58;98192.25;;;-5.71;71.83
35918;BME280;22011;59.912;30.300;2024-01-16T02:28:26;98188.72;;;-5.70;71.91
35918;BME280;22011;59.912;30.300;2024-01-16T02:30:54;98188.44;;;-5.67;71.88
35918;BME280;22011;59.912;30.300;2024-01-16T02:33:21;98184.78;;;-5.65;71.56
35918;BME280;22011;59.912;30.300;2024-01-16T02:35:49;98193.50;;;-5.66;71.28
35918;BME280;22011;59.912;30.300;2024-01-16T02:38:17;98183.97;;;-5.65;71.19
35918;BME280;22011;59.912;30.300;2024-01-16T02:40:46;98189.97;;;-5.65;71.41
35918;BME280;22011;59.912;30.300;2024-01-16T02:43:14;98191.63;;;-5.64;71.21
35918;BME280;22011;59.912;30.300;2024-01-16T02:45:42;98195.72;;;-5.61;71.34
35918;BME280;22011;59.912;30.300;2024-01-16T02:48:10;98195.59;;;-5.60;71.29
35918;BME280;22011;59.912;30.300;2024-01-16T02:50:38;98193.00;;;-5.60;71.45
35918;BME280;22011;59.912;30.300;2024-01-16T02:53:05;98204.22;;;-5.59;71.51
35918;BME280;22011;59.912;30.300;2024-01-16T02:55:33;98205.03;;;-5.58;71.49
35918;BME280;22011;59.912;30.300;2024-01-16T02:58:03;98199.34;;;-5.52;71.70
35918;BME280;22011;59.912;30.300;2024-01-16T03:00:31;98199.59;;;-5.55;71.36
35918;BME280;22011;59.912;30.300;2024-01-16T03:02:59;98205.72;;;-5.56;71.40
35918;BME280;22011;59.912;30.300;2024-01-16T03:05:27;98202.19;;;-5.55;71.37
35918;BME280;22011;59.912;30.300;2024-01-16T03:07:54;98206.69;;;-5.57;71.17
35918;BME280;22011;59.912;30.300;2024-01-16T03:10:22;98201.50;;;-5.57;71.10
35918;BME280;22011;59.912;30.300;2024-01-16T03:12:50;98202.44;;;-5.58;71.31
35918;BME280;22011;59.912;30.300;2024-01-16T03:15:19;98205.72;;;-5.56;70.92
35918;BME280;22011;59.912;30.300;2024-01-16T03:17:47;98209.41;;;-5.59;70.59
35918;BME280;22011;59.912;30.300;2024-01-16T03:20:15;98213.88;;;-5.61;70.68
35918;BME280;22011;59.912;30.300;2024-01-16T03:22:43;98208.69;;;-5.61;70.68
35918;BME280;22011;59.912;30.300;2024-01-16T03:25:10;98211.28;;;-5.61;70.91
35918;BME280;22011;59.912;30.300;2024-01-16T03:27:38;98207.19;;;-5.64;70.93
35918;BME280;22011;59.912;30.300;2024-01-16T03:30:08;98217.56;;;-5.64;70.90
35918;BME280;22011;59.912;30.300;2024-01-16T03:32:37;98208.00;;;-5.63;70.98
35918;BME280;22011;59.912;30.300;2024-01-16T03:35:06;98208.25;;;-5.66;70.91
35918;BME280;22011;59.912;30.300;2024-01-16T03:37:33;98213.31;;;-5.65;71.31
35918;BME280;22011;59.912;30.300;2024-01-16T03:40:01;98211.53;;;-5.64;71.23
35918;BME280;22011;59.912;30.300;2024-01-16T03:42:30;98214.84;;;-5.62;70.99
35918;BME280;22011;59.912;30.300;2024-01-16T03:44:57;98209.66;;;-5.62;71.39
35918;BME280;22011;59.912;30.300;2024-01-16T03:47:25;98209.41;;;-5.59;71.27
35918;BME280;22011;59.912;30.300;2024-01-16T03:49:54;98208.69;;;-5.40;71.03
35918;BME280;22011;59.912;30.300;2024-01-16T03:52:21;98215.53;;;-5.39;70.67
35918;BME280;22011;59.912;30.300;2024-01-16T03:54:49;98213.13;;;-5.31;70.25
35918;BME280;22011;59.912;30.300;2024-01-16T03:57:16;98216.50;;;-5.40;69.72
35918;BME280;22011;59.912;30.300;2024-01-16T03:59:44;98220.16;;;-5.43;69.95
35918;BME280;22011;59.912;30.300;2024-01-16T04:02:12;98220.47;;;-5.36;69.79
35918;BME280;22011;59.912;30.300;2024-01-16T04:04:40;98221.88;;;-5.32;69.80
35918;BME280;22011;59.912;30.300;2024-01-16T04:07:09;98217.25;;;-5.29;69.70
35918;BME280;22011;59.912;30.300;2024-01-16T04:09:37;98214.53;;;-5.27;69.56
35918;BME280;22011;59.912;30.300;2024-01-16T04:12:05;98215.59;;;-5.30;69.31
35918;BME280;22011;59.912;30.300;2024-01-16T04:14:34;98211.47;;;-5.32;69.65
35918;BME280;22011;59.912;30.300;2024-01-16T04:17:02;98210.03;;;-5.25;69.79
35918;BME280;22011;59.912;30.300;2024-01-16T04:19:30;98213.44;;;-5.24;69.60
35918;BME280;22011;59.912;30.300;2024-01-16T04:21:59;98220.16;;;-5.22;69.95
35918;BME280;22011;59.912;30.300;2024-01-16T04:24:29;98213.72;;;-5.18;69.61
35918;BME280;22011;59.912;30.300;2024-01-16T04:26:57;98211.66;;;-5.24;69.81
35918;BME280;22011;59.912;30.300;2024-01-16T04:29:25;98220.28;;;-5.23;69.85
35918;BME280;22011;59.912;30.300;2024-01-16T04:31:52;98215.91;;;-5.23;69.82
35918;BME280;22011;59.912;30.300;2024-01-16T04:34:20;98218.31;;;-5.31;69.77
35918;BME280;22011;59.912;30.300;2024-01-16T04:36:48;98217.94;;;-5.47;70.45
35918;BME280;22011;59.912;30.300;2024-01-16T04:39:15;98207.38;;;-5.55;70.52
35918;BME280;22011;59.912;30.300;2024-01-16T04:41:45;98210.22;;;-5.38;69.63
35918;BME280;22011;59.912;30.300;2024-01-16T04:44:12;98212.38;;;-5.43;69.89
35918;BME280;22011;59.912;30.300;2024-01-16T04:46:40;98214.72;;;-5.40;70.15
35918;BME280;22011;59.912;30.300;2024-01-16T04:49:08;98216.28;;;-5.48;70.02
35918;BME280;22011;59.912;30.300;2024-01-16T04:51:36;98210.41;;;-5.50;70.31
35918;BME280;22011;59.912;30.300;2024-01-16T04:54:04;98218.75;;;-5.47;70.22
35918;BME280;22011;59.912;30.300;2024-01-16T04:56:31;98215.84;;;-5.53;70.28
35918;BME280;22011;59.912;30.300;2024-01-16T04:59:00;98222.00;;;-5.54;70.41
35918;BME280;22011;59.912;30.300;2024-01-16T05:01:28;98221.28;;;-5.56;70.71
35918;BME280;22011;59.912;30.300;2024-01-16T05:03:56;98223.63;;;-5.53;70.73
35918;BME280;22011;59.912;30.300;2024-01-16T05:06:23;98225.66;;;-5.57;70.90
35918;BME280;22011;59.912;30.300;2024-01-16T05:08:51;98229.06;;;-5.56;70.98
35918;BME280;22011;59.912;30.300;2024-01-16T05:11:19;98237.56;;;-5.54;70.93
35918;BME280;22011;59.912;30.300;2024-01-16T05:13:46;98232.38;;;-5.54;71.04
35918;BME280;22011;59.912;30.300;2024-01-16T05:16:15;98243.56;;;-5.54;71.39
35918;BME280;22011;59.912;30.300;2024-01-16T05:18:43;98245.91;;;-5.51;71.27
35918;BME280;22011;59.912;30.300;2024-01-16T05:21:10;98247.69;;;-5.51;71.33
35918;BME280;22011;59.912;30.300;2024-01-16T05:23:38;98250.91;;;-5.38;70.89
35918;BME280;22011;59.912;30.300;2024-01-16T05:26:06;98248.16;;;-5.16;70.04
35918;BME280;22011;59.912;30.300;2024-01-16T05:28:33;98249.72;;;-5.34;70.77
35918;BME280;22011;59.912;30.300;2024-01-16T05:31:01;98251.03;;;-5.40;71.12
35918;BME280;22011;59.912;30.300;2024-01-16T05:33:30;98252.44;;;-5.36;70.78
35918;BME280;22011;59.912;30.300;2024-01-16T05:35:58;98252.69;;;-5.39;70.48
35918;BME280;22011;59.912;30.300;2024-01-16T05:38:26;98249.41;;;-5.41;70.48
35918;BME280;22011;59.912;30.300;2024-01-16T05:40:53;98261.25;;;-5.27;70.30
35918;BME280;22011;59.912;30.300;2024-01-16T05:43:21;98264.19;;;-5.11;69.63
35918;BME280;22011;59.912;30.300;2024-01-16T05:45:48;98259.84;;;-5.31;70.40
35918;BME280;22011;59.912;30.300;2024-01-16T05:48:17;98264.09;;;-5.30;70.56
35918;BME280;22011;59.912;30.300;2024-01-16T05:50:47;98273.38;;;-5.28;70.51
35918;BME280;22011;59.912;30.300;2024-01-16T05:53:14;98272.56;;;-5.28;70.40
35918;BME280;22011;59.912;30.300;2024-01-16T05:55:42;98268.06;;;-5.26;70.02
35918;BME280;22011;59.912;30.300;2024-01-16T05:58:09;98277.41;;;-5.14;70.14
35918;BME280;22011;59.912;30.300;2024-01-16T06:00:40;98271.78;;;-4.98;69.11
35918;BME280;22011;59.912;30.300;2024-01-16T06:03:08;98273.28;;;-4.96;68.86
35918;BME280;22011;59.912;30.300;2024-01-16T06:05:35;98278.34;;;-4.94;68.93
35918;BME280;22011;59.912;30.300;2024-01-16T06:08:05;98270.19;;;-4.89;69.19
35918;BME280;22011;59.912;30.300;2024-01-16T06:10:32;98270.19;;;-4.89;69.06
35918;BME280;22011;59.912;30.300;2024-01-16T06:13:00;98268.78;;;-4.94;69.02
35918;BME280;22011;59.912;30.300;2024-01-16T06:15:27;98276.31;;;-4.90;68.64
35918;BME280;22011;59.912;30.300;2024-01-16T06:17:55;98279.19;;;-4.94;68.47
35918;BME280;22011;59.912;30.300;2024-01-16T06:20:22;98288.44;;;-5.01;68.29
35918;BME280;22011;59.912;30.300;2024-01-16T06:22:51;98297.59;;;-4.97;68.53
35918;BME280;22011;59.912;30.300;2024-01-16T06:25:20;98293.81;;;-4.93;68.46
35918;BME280;22011;59.912;30.300;2024-01-16T06:27:48;98293.63;;;-5.01;68.45
35918;BME280;22011;59.912;30.300;2024-01-16T06:30:15;98289.81;;;-4.97;68.41
35918;BME280;22011;59.912;30.300;2024-01-16T06:32:43;98297.09;;;-5.11;68.58
35918;BME280;22011;59.912;30.300;2024-01-16T06:35:12;98298.97;;;-5.23;68.75
35918;BME280;22011;59.912;30.300;2024-01-16T06:37:40;98297.13;;;-5.32;68.92
35918;BME280;22011;59.912;30.300;2024-01-16T06:40:08;98308.72;;;-5.36;69.33
35918;BME280;22011;59.912;30.300;2024-01-16T06:42:37;98310.03;;;-5.42;69.38
35918;BME280;22011;59.912;30.300;2024-01-16T06:45:06;98307.81;;;-5.46;70.08
35918;BME280;22011;59.912;30.300;2024-01-16T06:47:34;98319.84;;;-5.45;69.82
35918;BME280;22011;59.912;30.300;2024-01-16T06:50:01;98317.25;;;-5.45;69.91
35918;BME280;22011;59.912;30.300;2024-01-16T06:52:29;98319.84;;;-5.45;69.69
35918;BME280;22011;59.912;30.300;2024-01-16T06:54:57;98318.19;;;-5.46;69.84
35918;BME280;22011;59.912;30.300;2024-01-16T06:57:24;98314.75;;;-5.47;70.22
35918;BME280;22011;59.912;30.300;2024-01-16T06:59:55;98320.66;;;-5.45;70.22
35918;BME280;22011;59.912;30.300;2024-01-16T07:02:22;98321.22;;;-5.41;70.27
35918;BME280;22011;59.912;30.300;2024-01-16T07:04:50;98326.19;;;-5.38;70.28
35918;BME280;22011;59.912;30.300;2024-01-16T07:07:17;98330.16;;;-5.34;69.80
35918;BME280;22011;59.912;30.300;2024-01-16T07:09:46;98328.16;;;-5.31;69.74
35918;BME280;22011;59.912;30.300;2024-01-16T07:12:13;98324.84;;;-5.33;69.83
35918;BME280;22011;59.912;30.300;2024-01-16T07:14:41;98327.69;;;-5.36;69.63
35918;BME280;22011;59.912;30.300;2024-01-16T07:17:10;98331.56;;;-5.30;69.66
35918;BME280;22011;59.912;30.300;2024-01-16T07:19:37;98341.81;;;-5.29;69.71
35918;BME280;22011;59.912;30.300;2024-01-16T07:22:05;98333.22;;;-5.29;69.05
35918;BME280;22011;59.912;30.300;2024-01-16T07:24:33;98341.00;;;-5.29;68.96
35918;BME280;22011;59.912;30.300;2024-01-16T07:27:00;98346.19;;;-5.29;68.95
35918;BME280;22011;59.912;30.300;2024-01-16T07:29:29;98340.69;;;-5.36;68.61
35918;BME280;22011;59.912;30.300;2024-01-16T07:31:56;98343.63;;;-5.40;68.70
35918;BME280;22011;59.912;30.300;2024-01-16T07:34:25;98342.69;;;-5.39;68.69
35918;BME280;22011;59.912;30.300;2024-01-16T07:36:53;98349.66;;;-5.40;68.82
35918;BME280;22011;59.912;30.300;2024-01-16T07:39:21;98354.25;;;-5.43;68.68
35918;BME280;22011;59.912;30.300;2024-01-16T07:41:50;98358.41;;;-5.52;68.34
35918;BME280;22011;59.912;30.300;2024-01-16T07:44:17;98354.66;;;-5.59;68.32
35918;BME280;22011;59.912;30.300;2024-01-16T07:46:45;98364.94;;;-5.57;68.23
35918;BME280;22011;59.912;30.300;2024-01-16T07:49:13;98366.94;;;-5.61;68.08
35918;BME280;22011;59.912;30.300;2024-01-16T07:51:42;98369.28;;;-5.58;68.14
35918;BME280;22011;59.912;30.300;2024-01-16T07:54:10;98368.59;;;-5.60;68.26
35918;BME280;22011;59.912;30.300;2024-01-16T07:56:39;98376.38;;;-5.60;68.11
35918;BME280;22011;59.912;30.300;2024-01-16T07:59:06;98372.81;;;-5.59;67.80
35918;BME280;22011;59.912;30.300;2024-01-16T08:01:34;98380.03;;;-5.63;67.34
35918;BME280;22011;59.912;30.300;2024-01-16T08:04:02;98386.28;;;-5.65;66.89
35918;BME280;22011;59.912;30.300;2024-01-16T08:06:30;98379.44;;;-5.66;66.28
35918;BME280;22011;59.912;30.300;2024-01-16T08:09:00;98382.63;;;-5.63;66.07
35918;BME280;22011;59.912;30.300;2024-01-16T08:11:27;98394.66;;;-5.62;65.61
35918;BME280;22011;59.912;30.300;2024-01-16T08:13:55;98392.06;;;-5.62;65.58
35918;BME280;22011;59.912;30.300;2024-01-16T08:16:23;98392.19;;;-5.63;65.68
35918;BME280;22011;59.912;30.300;2024-01-16T08:18:50;98385.34;;;-5.64;65.75
35918;BME280;22011;59.912;30.300;2024-01-16T08:21:18;98385.47;;;-5.66;65.98
35918;BME280;22011;59.912;30.300;2024-01-16T08:23:45;98392.06;;;-5.62;66.12
35918;BME280;22011;59.912;30.300;2024-01-16T08:26:14;98394.88;;;-5.53;65.53
35918;BME280;22011;59.912;30.300;2024-01-16T08:28:42;98401.47;;;-5.49;64.61
35918;BME280;22011;59.912;30.300;2024-01-16T08:31:10;98401.47;;;-5.49;63.91
35918;BME280;22011;59.912;30.300;2024-01-16T08:33:37;98407.13;;;-5.55;63.20
35918;BME280;22011;59.912;30.300;2024-01-16T08:36:05;98411.03;;;-5.61;63.76
35918;BME280;22011;59.912;30.300;2024-01-16T08:38:33;98414.69;;;-5.64;64.49
35918;BME280;22011;59.912;30.300;2024-01-16T08:41:00;98408.94;;;-5.67;65.08
35918;BME280;22011;59.912;30.300;2024-01-16T08:43:30;98405.72;;;-5.60;64.98
35918;BME280;22011;59.912;30.300;2024-01-16T08:45:58;98418.59;;;-5.58;65.18
35918;BME280;22011;59.912;30.300;2024-01-16T08:48:25;98422.69;;;-5.55;65.17
35918;BME280;22011;59.912;30.300;2024-01-16T08:50:53;98429.78;;;-5.57;64.90
35918;BME280;22011;59.912;30.300;2024-01-16T08:53:21;98423.53;;;-5.55;64.63
35918;BME280;22011;59.912;30.300;2024-01-16T08:55:49;98437.78;;;-5.49;64.54
35918;BME280;22011;59.912;30.300;2024-01-16T08:58:17;98436.63;;;-5.56;64.37
35918;BME280;22011;59.912;30.300;2024-01-16T09:00:46;98442.63;;;-5.56;64.56
35918;BME280;22011;59.912;30.300;2024-01-16T09:03:14;98447.69;;;-5.54;64.27
35918;BME280;22011;59.912;30.300;2024-01-16T09:05:42;98450.66;;;-5.59;64.56
35918;BME280;22011;59.912;30.300;2024-01-16T09:08:10;98446.28;;;-5.58;64.84
35918;BME280;22011;59.912;30.300;2024-01-16T09:10:38;98443.22;;;-5.52;64.78
35918;BME280;22011;59.912;30.300;2024-01-16T09:13:05;98442.16;;;-5.50;64.79
35918;BME280;22011;59.912;30.300;2024-01-16T09:15:33;98450.75;;;-5.49;64.96
35918;BME280;22011;59.912;30.300;2024-01-16T09:18:02;98450.53;;;-5.46;65.16
35918;BME280;22011;59.912;30.300;2024-01-16T09:20:30;98457.25;;;-5.55;65.18
35918;BME280;22011;59.912;30.300;2024-01-16T09:22:58;98461.28;;;-5.62;64.99
35918;BME280;22011;59.912;30.300;2024-01-16T09:25:26;98460.44;;;-5.63;64.55
35918;BME280;22011;59.912;30.300;2024-01-16T09:27:55;98467.28;;;-5.50;65.61
35918;BME280;22011;59.912;30.300;2024-01-16T09:30:23;98470.47;;;-5.69;64.69
35918;BME280;22011;59.912;30.300;2024-01-16T09:32:50;98470.59;;;-5.71;64.37
35918;BME280;22011;59.912;30.300;2024-01-16T09:35:19;98471.91;;;-5.76;64.35
35918;BME280;22011;59.912;30.300;2024-01-16T09:37:48;98475.78;;;-5.82;64.49
35918;BME280;22011;59.912;30.300;2024-01-16T09:40:15;98481.09;;;-5.83;64.83
35918;BME280;22011;59.912;30.300;2024-01-16T09:42:43;98480.19;;;-5.94;64.24
35918;BME280;22011;59.912;30.300;2024-01-16T09:45:13;98489.59;;;-6.04;64.33
35918;BME280;22011;59.912;30.300;2024-01-16T09:47:46;98489.22;;;-6.10;64.89
35918;BME280;22011;59.912;30.300;2024-01-16T09:50:14;98490.63;;;-6.17;65.40
35918;BME280;22011;59.912;30.300;2024-01-16T09:52:45;98493.47;;;-6.20;65.33
35918;BME280;22011;59.912;30.300;2024-01-16T09:55:13;98489.94;;;-6.19;65.49
35918;BME280;22011;59.912;30.300;2024-01-16T09:57:41;98490.88;;;-6.09;65.96
35918;BME280;22011;59.912;30.300;2024-01-16T10:00:11;98493.81;;;-6.14;65.71
35918;BME280;22011;59.912;30.300;2024-01-16T10:02:39;98495.09;;;-6.19;65.62
35918;BME280;22011;59.912;30.300;2024-01-16T10:05:08;98507.63;;;-6.24;65.47
35918;BME280;22011;59.912;30.300;2024-01-16T10:07:37;98494.66;;;-6.24;65.60
35918;BME280;22011;59.912;30.300;2024-01-16T10:10:07;98502.56;;;-6.26;65.41
35918;BME280;22011;59.912;30.300;2024-01-16T10:12:38;98515.25;;;-6.23;65.31
35918;BME280;22011;59.912;30.300;2024-01-16T10:15:07;98519.03;;;-6.16;65.27
35918;BME280;22011;59.912;30.300;2024-01-16T10:17:36;98518.31;;;-6.18;64.79
35918;BME280;22011;59.912;30.300;2024-01-16T10:20:05;98523.38;;;-6.16;64.30
35918;BME280;22011;59.912;30.300;2024-01-16T10:22:33;98522.44;;;-6.15;63.54
35918;BME280;22011;59.912;30.300;2024-01-16T10:25:06;98531.16;;;-6.16;63.01
35918;BME280;22011;59.912;30.300;2024-01-16T10:27:35;98543.53;;;-6.31;62.32
35918;BME280;22011;59.912;30.300;2024-01-16T10:30:04;98546.47;;;-6.36;61.87
35918;BME280;22011;59.912;30.300;2024-01-16T10:32:33;98545.25;;;-6.43;61.56
35918;BME280;22011;59.912;30.300;2024-01-16T10:35:03;98547.09;;;-6.56;61.70
35918;BME280;22011;59.912;30.300;2024-01-16T10:37:40;98552.38;;;-6.57;62.37
35918;BME280;22011;59.912;30.300;2024-01-16T10:40:10;98562.19;;;-6.74;62.66
35918;BME280;22011;59.912;30.300;2024-01-16T10:42:38;98575.25;;;-6.75;63.05
35918;BME280;22011;59.912;30.300;2024-01-16T10:45:06;98567.75;;;-6.67;62.94
35918;BME280;22011;59.912;30.300;2024-01-16T10:47:34;98574.22;;;-6.73;62.37
35918;BME280;22011;59.912;30.300;2024-01-16T10:50:04;98579.81;;;-6.79;62.01
35918;BME280;22011;59.912;30.300;2024-01-16T10:52:35;98583.41;;;-6.93;61.63
35918;BME280;22011;59.912;30.300;2024-01-16T10:55:09;98585.09;;;-7.04;61.72
35918;BME280;22011;59.912;30.300;2024-01-16T10:57:39;98592.56;;;-7.12;61.52
35918;BME280;22011;59.912;30.300;2024-01-16T11:00:09;98596.09;;;-7.26;61.16
35918;BME280;22011;59.912;30.300;2024-01-16T11:02:43;98588.81;;;-7.32;61.72
35918;BME280;22011;59.912;30.300;2024-01-16T11:05:15;98590.16;;;-7.39;61.72
35918;BME280;22011;59.912;30.300;2024-01-16T11:07:44;98594.81;;;-7.44;62.23
35918;BME280;22011;59.912;30.300;2024-01-16T11:10:14;98592.88;;;-7.53;61.72
35918;BME280;22011;59.912;30.300;2024-01-16T11:12:43;98594.84;;;-7.70;62.08
35918;BME280;22011;59.912;30.300;2024-01-16T11:15:14;98600.63;;;-7.92;62.09
35918;BME280;22011;59.912;30.300;2024-01-16T11:17:44;98610.00;;;-8.03;62.53
35918;BME280;22011;59.912;30.300;2024-01-16T11:20:13;98614.34;;;-8.16;62.80
35918;BME280;22011;59.912;30.300;2024-01-16T11:22:44;98616.00;;;-8.15;63.00
35918;BME280;22011;59.912;30.300;2024-01-16T11:25:14;98611.78;;;-8.04;63.83
35918;BME280;22011;59.912;30.300;2024-01-16T11:27:43;98622.28;;;-8.19;63.00
35918;BME280;22011;59.912;30.300;2024-01-16T11:30:13;98618.03;;;-8.20;63.00
35918;BME280;22011;59.912;30.300;2024-01-16T11:32:56;98622.69;;;-8.26;62.66
35918;BME280;22011;59.912;30.300;2024-01-16T11:35:31;98624.13;;;-8.21;63.04
35918;BME280;22011;59.912;30.300;2024-01-16T11:38:04;98634.66;;;-8.25;62.88
35918;BME280;22011;59.912;30.300;2024-01-16T11:40:34;98628.69;;;-8.25;62.87
35918;BME280;22011;59.912;30.300;2024-01-16T11:43:36;98631.28;;;-8.12;62.98
35918;BME280;22011;59.912;30.300;2024-01-16T11:46:05;98645.72;;;-8.23;62.53
35918;BME280;22011;59.912;30.300;2024-01-16T11:48:33;98654.09;;;-8.19;62.61
35918;BME280;22011;59.912;30.300;2024-01-16T11:51:22;98649.19;;;-8.09;63.04
35918;BME280;22011;59.912;30.300;2024-01-16T11:53:50;98656.47;;;-8.29;62.53
35918;BME280;22011;59.912;30.300;2024-01-16T11:56:41;98666.41;;;-8.23;62.96
35918;BME280;22011;59.912;30.300;2024-01-16T11:59:35;98670.53;;;-8.20;63.13
35918;BME280;22011;59.912;30.300;2024-01-16T12:02:12;98672.31;;;-8.33;62.59
35918;BME280;22011;59.912;30.300;2024-01-16T12:04:41;98665.97;;;-8.42;62.05
35918;BME280;22011;59.912;30.300;2024-01-16T12:07:09;98677.81;;;-8.52;62.14
35918;BME280;22011;59.912;30.300;2024-01-16T12:09:37;98668.59;;;-8.56;62.32
35918;BME280;22011;59.912;30.300;2024-01-16T12:12:06;98680.22;;;-8.49;62.54
35918;BME280;22011;59.912;30.300;2024-01-16T12:14:34;98684.09;;;-8.56;62.28
35918;BME280;22011;59.912;30.300;2024-01-16T12:17:11;98687.31;;;-8.52;62.62
35918;BME280;22011;59.912;30.300;2024-01-16T12:19:40;98693.16;;;-8.63;62.47
35918;BME280;22011;59.912;30.300;2024-01-16T12:22:08;98703.84;;;-8.69;62.58
35918;BME280;22011;59.912;30.300;2024-01-16T12:24:37;98702.56;;;-8.76;62.16
35918;BME280;22011;59.912;30.300;2024-01-16T12:27:06;98712.63;;;-8.86;62.38
35918;BME280;22011;59.912;30.300;2024-01-16T12:29:34;98712.47;;;-8.97;62.48
35918;BME280;22011;59.912;30.300;2024-01-16T12:32:07;98718.91;;;-8.90;63.12
35918;BME280;22011;59.912;30.300;2024-01-16T12:34:43;98715.75;;;-8.81;63.21
35918;BME280;22011;59.912;30.300;2024-01-16T12:37:12;98725.19;;;-8.94;63.16
35918;BME280;22011;59.912;30.300;2024-01-16T12:39:40;98725.44;;;-8.99;63.36
35918;BME280;22011;59.912;30.300;2024-01-16T12:42:11;98732.47;;;-9.01;63.49
35918;BME280;22011;59.912;30.300;2024-01-16T12:44:39;98732.09;;;-9.09;63.82
35918;BME280;22011;59.912;30.300;2024-01-16T12:47:07;98740.56;;;-9.07;64.43
35918;BME280;22011;59.912;30.300;2024-01-16T12:49:40;98743.16;;;-8.93;64.71
35918;BME280;22011;59.912;30.300;2024-01-16T12:52:16;98744.97;;;-8.80;64.95
35918;BME280;22011;59.912;30.300;2024-01-16T12:54:44;98750.88;;;-8.78;64.59
35918;BME280;22011;59.912;30.300;2024-01-16T12:57:18;98748.84;;;-8.73;64.21
35918;BME280;22011;59.912;30.300;2024-01-16T12:59:46;98762.41;;;-8.84;63.82